Terminal Aerodrome Forecast
Issued by NWS

Home | Current Version | Previous Version | Graphics & Text | Print | Product List | Glossary On
Versions: 1 2 3 4 5 6 7 8 9 10 11 12 13 14 15 16 17
000
FTUS43 KTOP 212300
TAFMHK
TAF
KMHK 212325Z 2200/2224 20013G20KT P6SM SCT250
     FM220100 20009KT P6SM SCT200
     FM221500 23010KT P6SM SCT150=

USA.gov is the U.S. government's official web portal to all federal, state and local government web resources and services.